createdAt,value
2023-04-04T00:00:16.870Z,9.20
2023-04-04T00:02:50.608Z,9.29
2023-04-04T00:05:23.097Z,9.19
2023-04-04T00:07:57.787Z,9.29
2023-04-04T00:10:30.826Z,9.30
2023-04-04T00:13:03.695Z,9.26
2023-04-04T00:15:36.911Z,9.31
2023-04-04T00:18:09.717Z,9.28
2023-04-04T00:20:43.136Z,9.29
2023-04-04T00:23:17.110Z,9.27
2023-04-04T00:25:51.549Z,9.25
2023-04-04T00:28:24.124Z,9.27
2023-04-04T00:30:57.347Z,9.28
2023-04-04T00:33:29.748Z,9.26
2023-04-04T00:36:03.434Z,9.30
2023-04-04T00:38:37.764Z,9.28
2023-04-04T00:41:11.983Z,9.24
2023-04-04T00:43:45.331Z,9.34
2023-04-04T00:46:19.173Z,9.35
2023-04-04T00:48:52.505Z,9.36
2023-04-04T00:51:26.506Z,9.31
2023-04-04T00:54:01.167Z,9.36
2023-04-04T00:56:38.290Z,9.33
2023-04-04T00:59:11.588Z,9.34
2023-04-04T01:01:44.404Z,9.34
2023-04-04T01:04:17.428Z,9.23
2023-04-04T01:06:51.117Z,9.34
2023-04-04T01:09:25.992Z,9.31
2023-04-04T01:11:59.805Z,9.29
2023-04-04T01:14:36.094Z,9.31
2023-04-04T01:17:08.964Z,9.32
2023-04-04T01:19:48.937Z,9.25
2023-04-04T01:22:25.019Z,9.30
2023-04-04T01:25:01.137Z,9.22
2023-04-04T01:27:37.221Z,9.28
2023-04-04T01:30:17.835Z,9.27
2023-04-04T01:32:57.469Z,9.23
2023-04-04T01:35:37.198Z,9.24
2023-04-04T01:38:17.167Z,9.25
2023-04-04T01:40:52.576Z,9.13
2023-04-04T01:43:31.317Z,9.23
2023-04-04T01:46:06.745Z,9.17
2023-04-04T01:48:39.474Z,9.19
2023-04-04T01:51:14.300Z,9.18
2023-04-04T01:53:47.855Z,9.17
2023-04-04T01:56:20.673Z,9.15
2023-04-04T01:58:55.061Z,9.16
2023-04-04T02:01:27.771Z,9.11
2023-04-04T02:04:01.131Z,9.13
2023-04-04T02:06:34.057Z,9.14
2023-04-04T02:09:07.323Z,9.14
2023-04-04T02:11:39.892Z,9.16
2023-04-04T02:14:14.626Z,9.16
2023-04-04T02:17:07.937Z,9.16
2023-04-04T02:19:41.075Z,9.15
2023-04-04T02:22:13.892Z,9.14
2023-04-04T02:24:46.996Z,9.13
2023-04-04T02:27:19.403Z,9.13
2023-04-04T02:29:54.391Z,9.08
2023-04-04T02:32:27.572Z,9.10
2023-04-04T02:35:00.549Z,8.92
2023-04-04T02:37:33.678Z,9.05
2023-04-04T02:40:09.273Z,9.04
2023-04-04T02:42:45.834Z,9.02
2023-04-04T02:45:20.583Z,9.01
2023-04-04T02:48:03.966Z,9.00
2023-04-04T02:50:48.125Z,8.96
2023-04-04T02:53:21.653Z,8.74
2023-04-04T02:55:57.258Z,8.93
2023-04-04T02:58:29.786Z,8.95
2023-04-04T03:01:04.349Z,8.87
2023-04-04T03:03:41.135Z,8.93
2023-04-04T03:06:15.218Z,8.96
2023-04-04T03:08:48.223Z,8.94
2023-04-04T03:11:21.981Z,8.85
2023-04-04T03:13:57.381Z,8.91
2023-04-04T03:16:44.156Z,8.89
2023-04-04T03:19:17.289Z,8.84
2023-04-04T03:21:50.079Z,8.82
2023-04-04T03:24:22.902Z,8.80
2023-04-04T03:26:57.774Z,8.76
2023-04-04T03:29:30.212Z,8.75
2023-04-04T03:32:06.396Z,8.70
2023-04-04T03:34:39.317Z,8.62
2023-04-04T03:37:12.060Z,8.68
2023-04-04T03:39:45.676Z,8.68
2023-04-04T03:42:18.749Z,8.68
2023-04-04T03:44:51.292Z,8.67
2023-04-04T03:47:34.981Z,8.66
2023-04-04T03:50:08.514Z,8.63
2023-04-04T03:52:44.383Z,8.65
2023-04-04T03:55:17.530Z,8.66
2023-04-04T03:57:52.014Z,8.66
2023-04-04T04:00:27.553Z,8.65
2023-04-04T04:03:01.692Z,8.66
2023-04-04T04:05:34.481Z,8.66
2023-04-04T04:08:07.550Z,8.70
2023-04-04T04:10:40.952Z,8.72
2023-04-04T04:13:14.216Z,8.76
2023-04-04T04:15:46.923Z,8.79
2023-04-04T04:18:32.140Z,8.83
2023-04-04T04:21:05.575Z,8.83
2023-04-04T04:23:39.385Z,8.95
2023-04-04T04:26:12.359Z,9.01
2023-04-04T04:28:48.402Z,8.96
2023-04-04T04:31:25.724Z,9.10
2023-04-04T04:34:00.748Z,9.06
2023-04-04T04:36:36.678Z,9.22
2023-04-04T04:39:28.442Z,9.32
2023-04-04T04:42:31.114Z,9.42
2023-04-04T04:45:07.323Z,9.57
2023-04-04T04:47:42.504Z,9.72
2023-04-04T04:50:19.286Z,9.83
2023-04-04T04:52:55.684Z,9.87
2023-04-04T04:55:31.478Z,9.89
2023-04-04T04:58:14.422Z,9.98
2023-04-04T05:00:56.859Z,9.99
2023-04-04T05:03:30.649Z,9.99
2023-04-04T05:06:06.600Z,9.98
2023-04-04T05:08:41.361Z,10.01
2023-04-04T05:11:37.248Z,10.08
2023-04-04T05:14:12.178Z,10.12
2023-04-04T05:16:53.016Z,10.17
2023-04-04T05:19:29.504Z,10.22
2023-04-04T05:22:05.452Z,10.24
2023-04-04T05:24:52.732Z,10.34
2023-04-04T05:27:29.364Z,10.63
2023-04-04T05:30:10.813Z,10.87
2023-04-04T05:32:54.964Z,11.07
2023-04-04T05:35:35.031Z,11.16
2023-04-04T05:38:10.140Z,11.34
2023-04-04T05:40:42.993Z,11.37
2023-04-04T05:43:18.886Z,11.37
2023-04-04T05:46:17.838Z,11.43
2023-04-04T05:48:55.865Z,11.39
2023-04-04T05:51:29.859Z,11.45
2023-04-04T05:54:13.941Z,11.43
2023-04-04T05:56:48.545Z,11.38
2023-04-04T05:59:35.522Z,11.43
2023-04-04T06:02:11.034Z,11.43
2023-04-04T06:04:53.239Z,11.36
2023-04-04T06:07:36.584Z,11.38
2023-04-04T06:10:11.811Z,11.37
2023-04-04T06:12:48.937Z,11.36
2023-04-04T06:15:21.632Z,11.43
2023-04-04T06:17:56.368Z,11.44
2023-04-04T06:20:29.910Z,11.49
2023-04-04T06:23:05.040Z,11.55
2023-04-04T06:25:41.607Z,11.65
2023-04-04T06:28:16.440Z,11.76
2023-04-04T06:30:51.242Z,11.83
2023-04-04T06:33:33.171Z,11.93
2023-04-04T06:36:07.090Z,12.00
2023-04-04T06:38:40.078Z,12.02
2023-04-04T06:41:24.471Z,12.17
2023-04-04T06:43:59.363Z,12.24
2023-04-04T06:46:33.335Z,12.32
2023-04-04T06:49:06.657Z,12.44
2023-04-04T06:51:41.850Z,12.53
2023-04-04T06:54:15.149Z,12.56
2023-04-04T06:56:48.998Z,12.56
2023-04-04T06:59:22.615Z,12.59
2023-04-04T07:01:57.205Z,12.52
2023-04-04T07:04:35.342Z,12.58
2023-04-04T07:07:08.033Z,12.55
2023-04-04T07:09:41.322Z,12.64
2023-04-04T07:12:15.617Z,12.59
2023-04-04T07:14:49.021Z,12.63
2023-04-04T07:17:24.946Z,12.63
2023-04-04T07:19:58.352Z,12.43
2023-04-04T07:22:31.756Z,12.61
2023-04-04T07:25:04.893Z,12.58
2023-04-04T07:27:41.417Z,12.54
2023-04-04T07:33:19.832Z,12.44
2023-04-04T07:35:53.400Z,12.44
2023-04-04T07:38:26.112Z,12.43
2023-04-04T07:41:01.043Z,12.48
2023-04-04T07:43:37.016Z,12.47
2023-04-04T07:46:09.702Z,12.41
2023-04-04T07:48:42.868Z,12.30
2023-04-04T07:51:15.589Z,12.32
2023-04-04T07:53:48.311Z,12.29
2023-04-04T07:56:21.924Z,12.20
2023-04-04T07:58:56.709Z,12.34
2023-04-04T08:01:29.256Z,12.36
2023-04-04T08:04:02.191Z,12.38
2023-04-04T08:06:36.941Z,12.36
2023-04-04T08:09:10.131Z,12.41
2023-04-04T08:11:42.866Z,12.47
2023-04-04T08:14:17.802Z,12.42
2023-04-04T08:16:50.730Z,12.61
2023-04-04T08:19:23.862Z,12.66
2023-04-04T08:21:57.022Z,12.68
2023-04-04T08:24:30.071Z,12.76
2023-04-04T08:27:05.522Z,12.83
2023-04-04T08:29:40.201Z,12.87
2023-04-04T08:32:13.540Z,13.03
2023-04-04T08:34:46.295Z,13.11
2023-04-04T08:37:18.787Z,13.14
2023-04-04T08:39:51.546Z,13.14
2023-04-04T08:42:26.889Z,13.09
2023-04-04T08:45:06.954Z,13.05
2023-04-04T08:47:41.844Z,13.01
2023-04-04T08:50:14.880Z,12.92
2023-04-04T08:52:48.111Z,12.83
2023-04-04T08:55:21.854Z,12.91
2023-04-04T08:57:54.332Z,12.92
2023-04-04T09:00:29.255Z,12.92
2023-04-04T09:03:08.560Z,12.96
2023-04-04T09:05:44.342Z,12.97
2023-04-04T09:08:18.476Z,13.02
2023-04-04T09:10:52.753Z,13.10
2023-04-04T09:13:25.500Z,13.15
2023-04-04T09:16:01.626Z,13.18
2023-04-04T09:18:35.160Z,13.19
2023-04-04T09:21:12.244Z,13.24
2023-04-04T09:23:44.944Z,13.23
2023-04-04T09:26:18.078Z,13.28
2023-04-04T09:28:53.413Z,13.27
2023-04-04T09:31:27.680Z,13.30
2023-04-04T09:34:00.210Z,13.28
2023-04-04T09:36:33.216Z,13.32
2023-04-04T09:39:06.722Z,13.35
2023-04-04T09:41:40.927Z,13.41
2023-04-04T09:44:14.244Z,13.46
2023-04-04T09:46:52.196Z,13.49
2023-04-04T09:49:25.281Z,13.48
2023-04-04T09:51:57.776Z,13.56
2023-04-04T09:54:31.607Z,13.59
2023-04-04T09:57:05.175Z,13.62
2023-04-04T09:59:38.475Z,13.62
2023-04-04T10:02:12.827Z,13.67
2023-04-04T10:04:48.945Z,13.69
2023-04-04T10:07:24.730Z,13.71
2023-04-04T10:09:58.014Z,13.72
2023-04-04T10:12:31.306Z,13.73
2023-04-04T10:15:04.332Z,13.72
2023-04-04T10:17:39.716Z,13.78
2023-04-04T10:20:13.413Z,13.79
2023-04-04T10:22:47.196Z,13.82
2023-04-04T10:25:21.009Z,13.84
2023-04-04T10:27:53.636Z,13.90
2023-04-04T10:30:26.558Z,13.92
2023-04-04T10:33:06.580Z,13.87
2023-04-04T10:35:44.597Z,13.89
2023-04-04T10:38:21.172Z,13.97
2023-04-04T10:40:57.717Z,14.01
2023-04-04T10:43:35.419Z,13.99
2023-04-04T10:46:14.073Z,14.02
2023-04-04T10:48:49.825Z,14.10
2023-04-04T10:51:22.929Z,14.17
2023-04-04T10:53:56.555Z,14.23
2023-04-04T10:56:29.951Z,14.28
2023-04-04T10:59:17.688Z,14.30
2023-04-04T11:01:55.069Z,14.28
2023-04-04T11:04:39.708Z,14.23
2023-04-04T11:07:17.414Z,14.23
2023-04-04T11:09:52.776Z,14.29
2023-04-04T11:12:30.492Z,14.35
2023-04-04T11:15:10.861Z,14.39
2023-04-04T11:17:55.022Z,14.42
2023-04-04T11:20:34.797Z,14.37
2023-04-04T11:23:09.928Z,14.31
2023-04-04T11:25:50.968Z,14.41
2023-04-04T11:28:49.192Z,14.38
2023-04-04T11:31:29.458Z,14.34
2023-04-04T11:34:05.113Z,14.29
2023-04-04T11:36:52.277Z,14.27
2023-04-04T11:39:30.956Z,14.23
2023-04-04T11:42:10.444Z,14.16
2023-04-04T11:45:03.816Z,14.10
2023-04-04T11:47:39.221Z,14.13
2023-04-04T11:50:15.193Z,14.21
2023-04-04T11:52:51.672Z,14.23
2023-04-04T11:55:27.080Z,14.30
2023-04-04T11:58:06.661Z,14.31
2023-04-04T12:00:40.700Z,14.34
2023-04-04T12:03:16.401Z,14.40
2023-04-04T12:05:50.298Z,14.33
2023-04-04T12:08:24.896Z,14.45
2023-04-04T12:11:00.904Z,14.43
2023-04-04T12:13:33.765Z,14.54
2023-04-04T12:16:09.531Z,14.61
2023-04-04T12:18:42.349Z,14.63
2023-04-04T12:21:16.199Z,14.56
2023-04-04T12:23:50.076Z,14.64
2023-04-04T12:26:23.331Z,14.61
2023-04-04T12:28:57.559Z,14.58
2023-04-04T12:31:31.683Z,14.49
2023-04-04T12:34:05.397Z,14.47
2023-04-04T12:36:39.481Z,14.33
2023-04-04T12:39:16.181Z,14.33
2023-04-04T12:41:51.845Z,14.31
2023-04-04T12:44:29.571Z,14.35
2023-04-04T12:47:04.809Z,14.28
2023-04-04T12:49:41.648Z,14.39
2023-04-04T12:52:20.762Z,14.37
2023-04-04T12:55:07.351Z,14.42
2023-04-04T12:57:41.196Z,14.40
2023-04-04T13:00:14.997Z,14.44
2023-04-04T13:02:51.272Z,14.41
2023-04-04T13:05:26.331Z,14.45
2023-04-04T13:08:06.780Z,14.46
2023-04-04T13:11:03.928Z,14.45
2023-04-04T13:13:39.220Z,14.44
2023-04-04T13:16:14.375Z,14.34
2023-04-04T13:18:48.882Z,14.43
2023-04-04T13:21:21.868Z,14.42
2023-04-04T13:23:54.936Z,14.42
2023-04-04T13:26:29.416Z,14.41
2023-04-04T13:29:01.940Z,14.33
2023-04-04T13:31:39.674Z,14.40
2023-04-04T13:34:12.450Z,13.85
2023-04-04T13:36:47.296Z,14.40
2023-04-04T13:39:21.319Z,14.34
2023-04-04T13:41:57.530Z,14.29
2023-04-04T13:44:30.952Z,14.20
2023-04-04T13:47:03.731Z,14.43
2023-04-04T13:49:37.169Z,14.44
2023-04-04T13:52:09.645Z,14.41
2023-04-04T13:54:42.563Z,14.44
2023-04-04T13:57:16.853Z,14.42
2023-04-04T13:59:52.159Z,14.38
2023-04-04T14:02:25.507Z,14.34
2023-04-04T14:04:58.538Z,14.32
2023-04-04T14:07:31.078Z,14.25
2023-04-04T14:10:04.048Z,14.21
2023-04-04T14:12:38.402Z,14.23
2023-04-04T14:15:12.786Z,14.23
2023-04-04T14:17:45.784Z,14.17
2023-04-04T14:20:18.849Z,14.26
2023-04-04T14:22:52.316Z,14.26
2023-04-04T14:25:25.525Z,14.14
2023-04-04T14:27:59.380Z,14.23
2023-04-04T14:30:32.743Z,14.20
2023-04-04T14:33:05.302Z,14.16
2023-04-04T14:35:38.809Z,14.23
2023-04-04T14:38:11.632Z,14.21
2023-04-04T14:40:44.762Z,14.21
2023-04-04T14:43:18.834Z,14.13
2023-04-04T14:45:52.655Z,14.18
2023-04-04T14:48:25.652Z,14.17
2023-04-04T14:50:58.930Z,14.08
2023-04-04T14:53:31.618Z,14.13
2023-04-04T14:56:04.833Z,14.11
2023-04-04T14:58:39.557Z,14.12
2023-04-04T15:01:12.357Z,14.12
2023-04-04T15:03:45.711Z,14.11
2023-04-04T15:06:18.468Z,14.11
2023-04-04T15:08:51.456Z,14.09
2023-04-04T15:11:27.538Z,14.10
2023-04-04T15:14:02.410Z,14.05
2023-04-04T15:16:38.573Z,14.07
2023-04-04T15:19:14.167Z,14.06
2023-04-04T15:21:48.068Z,14.01
2023-04-04T15:24:21.364Z,13.93
2023-04-04T15:26:54.786Z,13.95
2023-04-04T15:29:30.810Z,13.93
2023-04-04T15:32:03.780Z,13.86
2023-04-04T15:34:38.367Z,13.83
2023-04-04T15:37:11.042Z,13.94
2023-04-04T15:39:53.004Z,13.92
2023-04-04T15:42:29.407Z,13.89
2023-04-04T15:45:04.985Z,13.68
2023-04-04T15:47:37.762Z,13.75
2023-04-04T15:50:12.067Z,13.72
2023-04-04T15:52:44.855Z,13.81
2023-04-04T15:55:20.712Z,13.77
2023-04-04T15:57:54.284Z,13.74
2023-04-04T16:00:29.079Z,13.70
2023-04-04T16:03:01.911Z,13.70
2023-04-04T16:05:34.923Z,13.66
2023-04-04T16:08:08.011Z,13.63
2023-04-04T16:10:41.010Z,13.62
2023-04-04T16:13:14.469Z,13.58
2023-04-04T16:15:48.874Z,13.49
2023-04-04T16:18:21.641Z,13.50
2023-04-04T16:20:54.763Z,13.46
2023-04-04T16:23:27.839Z,13.38
2023-04-04T16:26:01.157Z,13.38
2023-04-04T16:28:34.091Z,13.35
2023-04-04T16:31:08.043Z,13.32
2023-04-04T16:33:41.666Z,13.29
2023-04-04T16:36:14.292Z,13.26
2023-04-04T16:38:47.169Z,13.20
2023-04-04T16:41:19.550Z,13.17
2023-04-04T16:43:52.930Z,13.11
2023-04-04T16:46:27.781Z,13.04
2023-04-04T16:49:00.835Z,12.99
2023-04-04T16:51:33.501Z,12.94
2023-04-04T16:54:06.812Z,12.89
2023-04-04T16:56:39.381Z,12.80
2023-04-04T16:59:12.556Z,12.84
2023-04-04T17:01:49.146Z,12.83
2023-04-04T17:04:22.735Z,12.81
2023-04-04T17:06:56.064Z,12.80
2023-04-04T17:09:29.181Z,12.78
2023-04-04T17:12:03.407Z,12.71
2023-04-04T17:14:36.923Z,12.73
2023-04-04T17:17:12.463Z,12.57
2023-04-04T17:19:45.856Z,12.30
2023-04-04T17:22:18.657Z,12.67
2023-04-04T17:24:51.950Z,12.55
2023-04-04T17:27:25.026Z,12.56
2023-04-04T17:29:58.207Z,12.55
2023-04-04T17:32:32.972Z,12.45
2023-04-04T17:35:07.088Z,12.45
2023-04-04T17:37:42.685Z,12.26
2023-04-04T17:40:19.698Z,12.24
2023-04-04T17:42:52.655Z,12.18
2023-04-04T17:45:26.025Z,12.00
2023-04-04T17:48:00.006Z,12.01
2023-04-04T17:50:34.769Z,11.89
2023-04-04T17:53:15.390Z,11.61
2023-04-04T17:55:51.776Z,11.76
2023-04-04T17:58:25.990Z,11.71
2023-04-04T18:01:02.500Z,11.65
2023-04-04T18:03:37.959Z,11.38
2023-04-04T18:06:11.011Z,11.47
2023-04-04T18:08:44.098Z,11.38
2023-04-04T18:11:17.598Z,11.29
2023-04-04T18:13:50.567Z,11.14
2023-04-04T18:16:23.955Z,11.11
2023-04-04T18:18:58.144Z,11.04
2023-04-04T18:21:31.451Z,10.95
2023-04-04T18:24:07.794Z,10.92
2023-04-04T18:26:41.031Z,10.93
2023-04-04T18:29:15.584Z,10.92
2023-04-04T18:31:48.088Z,10.76
2023-04-04T18:34:22.817Z,10.69
2023-04-04T18:36:56.507Z,10.79
2023-04-04T18:39:29.729Z,10.73
2023-04-04T18:42:05.104Z,10.67
2023-04-04T18:44:37.760Z,10.59
2023-04-04T18:47:11.940Z,10.55
2023-04-04T18:49:46.469Z,10.53
2023-04-04T18:52:19.909Z,10.50
2023-04-04T18:54:52.953Z,10.47
2023-04-04T18:57:25.662Z,10.37
2023-04-04T19:00:01.151Z,10.35
2023-04-04T19:05:33.124Z,9.97
2023-04-04T19:08:14.487Z,10.09
2023-04-04T19:10:51.455Z,9.84
2023-04-04T19:13:24.793Z,9.86
2023-04-04T19:15:58.832Z,9.89
2023-04-04T19:18:35.405Z,9.38
2023-04-04T19:21:11.034Z,9.79
2023-04-04T19:23:44.933Z,9.60
2023-04-04T19:26:20.234Z,9.68
2023-04-04T19:28:53.948Z,9.65
2023-04-04T19:31:30.981Z,9.64
2023-04-04T19:34:09.874Z,9.58
2023-04-04T19:36:44.581Z,9.60
2023-04-04T19:39:23.969Z,9.58
2023-04-04T19:41:57.983Z,9.25
2023-04-04T19:44:31.825Z,9.48
2023-04-04T19:47:06.952Z,9.44
2023-04-04T19:49:41.686Z,8.68
2023-04-04T19:52:23.181Z,9.33
2023-04-04T19:54:57.217Z,9.30
2023-04-04T19:57:29.947Z,9.18
2023-04-04T20:00:14.046Z,9.23
2023-04-04T20:03:07.347Z,9.21
2023-04-04T20:05:57.561Z,9.18
2023-04-04T20:08:37.802Z,9.17
2023-04-04T20:11:12.014Z,9.10
2023-04-04T20:13:46.054Z,9.14
2023-04-04T20:16:19.588Z,9.06
2023-04-04T20:18:53.170Z,9.16
2023-04-04T20:21:28.910Z,9.16
2023-04-04T20:24:08.327Z,9.06
2023-04-04T20:26:52.660Z,9.08
2023-04-04T20:29:26.752Z,9.02
2023-04-04T20:32:02.091Z,8.95
2023-04-04T20:34:41.905Z,8.93
2023-04-04T20:37:22.292Z,8.86
2023-04-04T20:39:58.820Z,8.85
2023-04-04T20:42:38.364Z,8.82
2023-04-04T20:45:45.141Z,8.78
2023-04-04T20:48:38.348Z,8.76
2023-04-04T20:51:23.884Z,8.71
2023-04-04T20:53:58.717Z,8.71
2023-04-04T20:56:53.090Z,8.71
2023-04-04T20:59:35.029Z,8.70
2023-04-04T21:02:10.134Z,8.66
2023-04-04T21:04:46.281Z,8.52
2023-04-04T21:07:35.895Z,8.64
2023-04-04T21:10:22.801Z,8.64
2023-04-04T21:12:59.058Z,8.43
2023-04-04T21:15:38.979Z,8.66
2023-04-04T21:18:12.658Z,8.65
2023-04-04T21:21:17.576Z,8.64
2023-04-04T21:23:52.596Z,8.58
2023-04-04T21:26:33.499Z,8.54
2023-04-04T21:29:08.824Z,8.47
2023-04-04T21:31:43.629Z,8.39
2023-04-04T21:34:18.285Z,8.35
2023-04-04T21:36:53.143Z,8.34
2023-04-04T21:39:29.623Z,8.33
2023-04-04T21:42:07.008Z,8.31
2023-04-04T21:44:42.548Z,8.29
2023-04-04T21:47:15.932Z,8.29
2023-04-04T21:49:48.324Z,8.25
2023-04-04T21:52:21.182Z,8.24
2023-04-04T21:54:54.178Z,8.21
2023-04-04T21:57:26.888Z,8.09
2023-04-04T22:00:01.256Z,8.13
2023-04-04T22:02:35.155Z,8.11
2023-04-04T22:05:08.502Z,8.08
2023-04-04T22:07:41.084Z,8.01
2023-04-04T22:10:13.813Z,8.02
2023-04-04T22:12:50.168Z,7.97
2023-04-04T22:15:29.499Z,7.91
2023-04-04T22:18:06.340Z,7.75
2023-04-04T22:20:39.247Z,7.80
2023-04-04T22:23:14.072Z,7.78
2023-04-04T22:25:46.945Z,7.73
2023-04-04T22:28:24.993Z,7.71
2023-04-04T22:30:59.374Z,7.65
2023-04-04T22:33:34.210Z,7.50
2023-04-04T22:36:08.306Z,7.57
2023-04-04T22:38:42.081Z,7.48
2023-04-04T22:41:14.655Z,7.44
2023-04-04T22:43:47.566Z,7.44
2023-04-04T22:46:22.223Z,7.42
2023-04-04T22:49:05.620Z,7.40
2023-04-04T22:51:46.204Z,7.36
2023-04-04T22:54:18.808Z,7.33
2023-04-04T22:56:51.967Z,7.28
2023-04-04T22:59:24.926Z,7.11
2023-04-04T23:01:59.511Z,7.17
2023-04-04T23:04:32.709Z,7.10
2023-04-04T23:07:06.022Z,7.08
2023-04-04T23:09:38.631Z,7.03
2023-04-04T23:12:11.662Z,6.99
2023-04-04T23:14:45.077Z,6.95
2023-04-04T23:17:19.686Z,6.93
2023-04-04T23:19:51.996Z,6.90
2023-04-04T23:22:25.672Z,6.88
2023-04-04T23:24:58.091Z,6.88
2023-04-04T23:27:31.840Z,6.85
2023-04-04T23:30:05.267Z,6.78
2023-04-04T23:32:39.962Z,6.82
2023-04-04T23:35:12.694Z,6.54
2023-04-04T23:37:46.715Z,6.79
2023-04-04T23:40:19.632Z,6.74
2023-04-04T23:42:53.370Z,6.74
2023-04-04T23:45:27.787Z,6.69
2023-04-04T23:48:02.144Z,6.62
2023-04-04T23:50:34.984Z,6.65
2023-04-04T23:53:07.508Z,6.68
2023-04-04T23:55:40.587Z,6.71
2023-04-04T23:58:13.414Z,6.65
